KMDT/MDT METAR and TAF weather

Enter ICAO airport designator
Station Type Date Time Source
KMDT METAR 2019/10/23 19:56 UTC NOAA

KMDT 231956Z 29013KT 10SM FEW070 18/01 A3004 RMK AO2 SLP171 T01830011


Station Type Date Time Source
KMDT Decoded METAR 2019/10/23 19:56 UTC NOAA

HARRISBURG INTERNATIONAL AIRPORT, PA, United States (KMDT) 40-12N 076-46W 95M
Oct 23, 2019 - 03:56 PM EDT / 2019.10.23 1956 UTC
Wind: from the WNW (290 degrees) at 15 MPH (13 KT):0
Visibility: 10 mile(s):0
Sky conditions: mostly clear
Temperature: 64.9 F (18.3 C)
Dew Point: 34.0 F (1.1 C)
Relative Humidity: 31%
Pressure (altimeter): 30.04 in. Hg (1017 hPa)
ob: KMDT 231956Z 29013KT 10SM FEW070 18/01 A3004 RMK AO2 SLP171 T01830011
cycle: 20

Station Type Date Time Source
KMDT TAF 2019/10/23 18:33 UTC NOAA

TAF KMDT 231731Z 2318/2418 28015G19KT P6SM SCT030
FM232200 29008KT P6SM SKC
FM240700 34003KT P6SM SKC
FM241500 19004KT P6SM SKC

Example: see airport list